Aviation Digital Data Service (ADDS)

Output produced by METARs form (1025 UTC 19 February 2019)
found at http://www.aviationweather.gov/metar/data/
 
Forecast for: MRLB (LIBERIA/TOMAS G , CR)
Text: MRLB 190500Z 1906/2006 07015KT CAVOK TX35/1919Z TN21/1911Z
Forecast period: 0600 UTC 19 February 2019 to 0600 UTC 20 February 2019
Forecast type: FROM: standard forecast or significant change
Winds: from the ENE (70 degrees) at 17 MPH (15 knots; 7.7 m/s)
Visibility: 6 or more miles 10+ km)
Ceiling: unknown
Clouds: missing
Weather: no significant weather forecast for this period
Text: TEMPO 1908/1912 09005KT
Forecast period: 0800 to 1200 UTC 19 February 2019
Forecast type: TEMPORARY: The following changes expected for less than half the time period
Winds: from the E (90 degrees) at 6 MPH (5 knots; 2.6 m/s)
Visibility: missing
Ceiling: unknown
Clouds: missing
Weather: no significant weather forecast for this period